sensor_id;sensor_type;location;lat;lon;timestamp;temperature;humidity
20141;DHT22;10231;47.702;9.826;2024-02-26T00:02:16;3.80;99.90
20141;DHT22;10231;47.702;9.826;2024-02-26T00:04:42;3.80;99.90
20141;DHT22;10231;47.702;9.826;2024-02-26T00:07:08;3.70;99.90
20141;DHT22;10231;47.702;9.826;2024-02-26T00:09:33;3.70;99.90
20141;DHT22;10231;47.702;9.826;2024-02-26T00:12:02;3.70;99.90
20141;DHT22;10231;47.702;9.826;2024-02-26T00:14:29;3.80;99.90
20141;DHT22;10231;47.702;9.826;2024-02-26T00:16:55;3.70;99.90
20141;DHT22;10231;47.702;9.826;2024-02-26T00:19:20;3.60;99.90
20141;DHT22;10231;47.702;9.826;2024-02-26T00:21:46;3.50;99.90
20141;DHT22;10231;47.702;9.826;2024-02-26T00:24:11;3.50;99.90
20141;DHT22;10231;47.702;9.826;2024-02-26T00:26:40;3.60;99.90
20141;DHT22;10231;47.702;9.826;2024-02-26T00:29:05;3.60;99.90
20141;DHT22;10231;47.702;9.826;2024-02-26T00:31:31;3.70;99.90
20141;DHT22;10231;47.702;9.826;2024-02-26T00:33:57;3.80;99.90
20141;DHT22;10231;47.702;9.826;2024-02-26T00:36:22;3.80;99.90
20141;DHT22;10231;47.702;9.826;2024-02-26T00:38:48;3.80;99.90
20141;DHT22;10231;47.702;9.826;2024-02-26T00:41:20;3.80;99.90
20141;DHT22;10231;47.702;9.826;2024-02-26T00:43:46;3.80;99.90
20141;DHT22;10231;47.702;9.826;2024-02-26T00:46:11;3.80;99.90
20141;DHT22;10231;47.702;9.826;2024-02-26T00:48:37;3.80;99.90
20141;DHT22;10231;47.702;9.826;2024-02-26T00:51:03;3.80;99.90
20141;DHT22;10231;47.702;9.826;2024-02-26T00:53:31;3.70;99.90
20141;DHT22;10231;47.702;9.826;2024-02-26T00:55:56;3.70;99.90
20141;DHT22;10231;47.702;9.826;2024-02-26T00:58:24;3.80;99.90
20141;DHT22;10231;47.702;9.826;2024-02-26T01:00:49;3.80;99.90
20141;DHT22;10231;47.702;9.826;2024-02-26T01:03:15;3.90;99.90
20141;DHT22;10231;47.702;9.826;2024-02-26T01:05:40;3.90;99.90
20141;DHT22;10231;47.702;9.826;2024-02-26T01:08:06;3.80;99.90
20141;DHT22;10231;47.702;9.826;2024-02-26T01:10:31;3.80;99.90
20141;DHT22;10231;47.702;9.826;2024-02-26T01:12:57;3.70;99.90
20141;DHT22;10231;47.702;9.826;2024-02-26T01:15:22;3.60;99.90
20141;DHT22;10231;47.702;9.826;2024-02-26T01:17:49;3.60;99.90
20141;DHT22;10231;47.702;9.826;2024-02-26T01:20:16;3.70;99.90
20141;DHT22;10231;47.702;9.826;2024-02-26T01:22:42;3.70;99.90
20141;DHT22;10231;47.702;9.826;2024-02-26T01:25:08;3.70;99.90
20141;DHT22;10231;47.702;9.826;2024-02-26T01:27:38;3.70;99.90
20141;DHT22;10231;47.702;9.826;2024-02-26T01:30:04;3.80;99.90
20141;DHT22;10231;47.702;9.826;2024-02-26T01:32:30;3.90;99.90
20141;DHT22;10231;47.702;9.826;2024-02-26T01:34:56;3.80;99.90
20141;DHT22;10231;47.702;9.826;2024-02-26T01:37:22;3.80;99.90
20141;DHT22;10231;47.702;9.826;2024-02-26T01:39:48;3.80;99.90
20141;DHT22;10231;47.702;9.826;2024-02-26T01:42:13;3.80;99.90
20141;DHT22;10231;47.702;9.826;2024-02-26T01:44:39;3.80;99.90
20141;DHT22;10231;47.702;9.826;2024-02-26T01:47:05;3.90;99.90
20141;DHT22;10231;47.702;9.826;2024-02-26T01:49:33;4.00;99.90
20141;DHT22;10231;47.702;9.826;2024-02-26T01:52:00;4.00;99.90
20141;DHT22;10231;47.702;9.826;2024-02-26T01:54:27;4.00;99.90
20141;DHT22;10231;47.702;9.826;2024-02-26T01:56:53;4.00;99.90
20141;DHT22;10231;47.702;9.826;2024-02-26T01:59:19;4.10;99.90
20141;DHT22;10231;47.702;9.826;2024-02-26T02:01:48;4.00;99.90
20141;DHT22;10231;47.702;9.826;2024-02-26T02:04:17;4.00;99.90
20141;DHT22;10231;47.702;9.826;2024-02-26T02:06:45;4.10;99.90
20141;DHT22;10231;47.702;9.826;2024-02-26T02:09:11;4.10;99.90
20141;DHT22;10231;47.702;9.826;2024-02-26T02:11:37;4.10;99.90
20141;DHT22;10231;47.702;9.826;2024-02-26T02:14:03;4.10;99.90
20141;DHT22;10231;47.702;9.826;2024-02-26T02:16:29;4.10;99.90
20141;DHT22;10231;47.702;9.826;2024-02-26T02:18:54;4.10;99.90
20141;DHT22;10231;47.702;9.826;2024-02-26T02:21:20;4.10;99.90
20141;DHT22;10231;47.702;9.826;2024-02-26T02:23:45;4.10;99.90
20141;DHT22;10231;47.702;9.826;2024-02-26T02:26:12;4.00;99.90
20141;DHT22;10231;47.702;9.826;2024-02-26T02:28:39;4.00;99.90
20141;DHT22;10231;47.702;9.826;2024-02-26T02:31:05;4.00;99.90
20141;DHT22;10231;47.702;9.826;2024-02-26T02:33:31;3.90;99.90
20141;DHT22;10231;47.702;9.826;2024-02-26T02:35:57;3.90;99.90
20141;DHT22;10231;47.702;9.826;2024-02-26T02:38:23;3.80;99.90
20141;DHT22;10231;47.702;9.826;2024-02-26T02:40:51;3.80;99.90
20141;DHT22;10231;47.702;9.826;2024-02-26T02:43:17;3.90;99.90
20141;DHT22;10231;47.702;9.826;2024-02-26T02:45:42;4.00;99.90
20141;DHT22;10231;47.702;9.826;2024-02-26T02:48:08;4.00;99.90
20141;DHT22;10231;47.702;9.826;2024-02-26T02:50:33;4.00;99.90
20141;DHT22;10231;47.702;9.826;2024-02-26T02:52:59;4.00;99.90
20141;DHT22;10231;47.702;9.826;2024-02-26T02:55:24;4.10;99.90
20141;DHT22;10231;47.702;9.826;2024-02-26T02:57:50;4.00;99.90
20141;DHT22;10231;47.702;9.826;2024-02-26T03:00:16;4.10;99.90
20141;DHT22;10231;47.702;9.826;2024-02-26T03:02:42;4.10;99.90
20141;DHT22;10231;47.702;9.826;2024-02-26T03:05:08;4.10;99.90
20141;DHT22;10231;47.702;9.826;2024-02-26T03:07:34;4.20;99.90
20141;DHT22;10231;47.702;9.826;2024-02-26T03:09:59;4.20;99.90
20141;DHT22;10231;47.702;9.826;2024-02-26T03:12:25;4.20;99.90
20141;DHT22;10231;47.702;9.826;2024-02-26T03:14:51;4.30;99.90
20141;DHT22;10231;47.702;9.826;2024-02-26T03:17:17;4.30;99.90
20141;DHT22;10231;47.702;9.826;2024-02-26T03:19:44;4.30;99.90
20141;DHT22;10231;47.702;9.826;2024-02-26T03:22:12;4.20;99.90
20141;DHT22;10231;47.702;9.826;2024-02-26T03:24:38;4.20;99.90
20141;DHT22;10231;47.702;9.826;2024-02-26T03:27:03;4.20;99.90
20141;DHT22;10231;47.702;9.826;2024-02-26T03:29:37;4.20;99.90
20141;DHT22;10231;47.702;9.826;2024-02-26T03:32:05;4.20;99.90
20141;DHT22;10231;47.702;9.826;2024-02-26T03:34:31;4.20;99.90
20141;DHT22;10231;47.702;9.826;2024-02-26T03:37:00;4.20;99.90
20141;DHT22;10231;47.702;9.826;2024-02-26T03:39:25;4.10;99.90
20141;DHT22;10231;47.702;9.826;2024-02-26T03:41:51;4.20;99.90
20141;DHT22;10231;47.702;9.826;2024-02-26T03:44:16;4.10;99.90
20141;DHT22;10231;47.702;9.826;2024-02-26T03:46:42;4.10;99.90
20141;DHT22;10231;47.702;9.826;2024-02-26T03:49:10;4.20;99.90
20141;DHT22;10231;47.702;9.826;2024-02-26T03:51:36;4.20;99.90
20141;DHT22;10231;47.702;9.826;2024-02-26T03:54:02;4.30;99.90
20141;DHT22;10231;47.702;9.826;2024-02-26T03:56:28;4.30;99.90
20141;DHT22;10231;47.702;9.826;2024-02-26T03:58:54;4.30;99.90
20141;DHT22;10231;47.702;9.826;2024-02-26T04:01:19;4.30;99.90
20141;DHT22;10231;47.702;9.826;2024-02-26T04:03:45;4.30;99.90
20141;DHT22;10231;47.702;9.826;2024-02-26T04:06:11;4.30;99.90
20141;DHT22;10231;47.702;9.826;2024-02-26T04:08:40;4.20;99.90
20141;DHT22;10231;47.702;9.826;2024-02-26T04:11:05;4.30;99.90
20141;DHT22;10231;47.702;9.826;2024-02-26T04:13:33;4.30;99.90
20141;DHT22;10231;47.702;9.826;2024-02-26T04:15:59;4.30;99.90
20141;DHT22;10231;47.702;9.826;2024-02-26T04:18:27;4.40;99.90
20141;DHT22;10231;47.702;9.826;2024-02-26T04:20:52;4.40;99.90
20141;DHT22;10231;47.702;9.826;2024-02-26T04:23:18;4.40;99.90
20141;DHT22;10231;47.702;9.826;2024-02-26T04:25:44;4.40;99.90
20141;DHT22;10231;47.702;9.826;2024-02-26T04:28:10;4.40;99.90
20141;DHT22;10231;47.702;9.826;2024-02-26T04:30:36;4.30;99.90
20141;DHT22;10231;47.702;9.826;2024-02-26T04:33:01;4.30;99.90
20141;DHT22;10231;47.702;9.826;2024-02-26T04:35:27;4.40;99.90
20141;DHT22;10231;47.702;9.826;2024-02-26T04:37:53;4.40;99.90
20141;DHT22;10231;47.702;9.826;2024-02-26T04:40:18;4.40;99.90
20141;DHT22;10231;47.702;9.826;2024-02-26T04:42:44;4.40;99.90
20141;DHT22;10231;47.702;9.826;2024-02-26T04:45:09;4.40;99.90
20141;DHT22;10231;47.702;9.826;2024-02-26T04:47:35;4.50;99.90
20141;DHT22;10231;47.702;9.826;2024-02-26T04:50:00;4.50;99.90
20141;DHT22;10231;47.702;9.826;2024-02-26T04:52:26;4.50;99.90
20141;DHT22;10231;47.702;9.826;2024-02-26T04:54:51;4.50;99.90
20141;DHT22;10231;47.702;9.826;2024-02-26T04:57:17;4.40;99.90
20141;DHT22;10231;47.702;9.826;2024-02-26T04:59:45;4.40;99.90
20141;DHT22;10231;47.702;9.826;2024-02-26T05:02:12;4.40;99.90
20141;DHT22;10231;47.702;9.826;2024-02-26T05:04:37;4.40;99.90
20141;DHT22;10231;47.702;9.826;2024-02-26T05:07:03;4.50;99.90
20141;DHT22;10231;47.702;9.826;2024-02-26T05:09:29;4.50;99.90
20141;DHT22;10231;47.702;9.826;2024-02-26T05:11:55;4.40;99.90
20141;DHT22;10231;47.702;9.826;2024-02-26T05:14:20;4.30;99.90
20141;DHT22;10231;47.702;9.826;2024-02-26T05:16:47;4.40;99.90
20141;DHT22;10231;47.702;9.826;2024-02-26T05:19:12;4.40;99.90
20141;DHT22;10231;47.702;9.826;2024-02-26T05:21:38;4.40;99.90
20141;DHT22;10231;47.702;9.826;2024-02-26T05:24:03;4.40;99.90
20141;DHT22;10231;47.702;9.826;2024-02-26T05:26:29;4.30;99.90
20141;DHT22;10231;47.702;9.826;2024-02-26T05:28:54;4.40;99.90
20141;DHT22;10231;47.702;9.826;2024-02-26T05:31:25;4.40;99.90
20141;DHT22;10231;47.702;9.826;2024-02-26T05:33:50;4.40;99.90
20141;DHT22;10231;47.702;9.826;2024-02-26T05:36:20;4.20;99.90
20141;DHT22;10231;47.702;9.826;2024-02-26T05:38:47;4.30;99.90
20141;DHT22;10231;47.702;9.826;2024-02-26T05:41:14;4.30;99.90
20141;DHT22;10231;47.702;9.826;2024-02-26T05:43:39;4.40;99.90
20141;DHT22;10231;47.702;9.826;2024-02-26T05:46:05;4.40;99.90
20141;DHT22;10231;47.702;9.826;2024-02-26T05:48:30;4.50;99.90
20141;DHT22;10231;47.702;9.826;2024-02-26T05:50:57;4.50;99.90
20141;DHT22;10231;47.702;9.826;2024-02-26T05:53:23;4.50;99.90
20141;DHT22;10231;47.702;9.826;2024-02-26T05:55:48;4.50;99.90
20141;DHT22;10231;47.702;9.826;2024-02-26T05:58:14;4.50;99.90
20141;DHT22;10231;47.702;9.826;2024-02-26T06:00:39;4.50;99.90
20141;DHT22;10231;47.702;9.826;2024-02-26T06:03:05;4.40;99.90
20141;DHT22;10231;47.702;9.826;2024-02-26T06:05:30;4.30;99.90
20141;DHT22;10231;47.702;9.826;2024-02-26T06:07:56;4.30;99.90
20141;DHT22;10231;47.702;9.826;2024-02-26T06:10:21;4.40;99.90
20141;DHT22;10231;47.702;9.826;2024-02-26T06:12:47;4.40;99.90
20141;DHT22;10231;47.702;9.826;2024-02-26T06:15:16;4.50;99.90
20141;DHT22;10231;47.702;9.826;2024-02-26T06:17:41;4.50;99.90
20141;DHT22;10231;47.702;9.826;2024-02-26T06:20:07;4.40;99.90
20141;DHT22;10231;47.702;9.826;2024-02-26T06:22:37;4.40;99.90
20141;DHT22;10231;47.702;9.826;2024-02-26T06:25:02;4.40;99.90
20141;DHT22;10231;47.702;9.826;2024-02-26T06:27:28;4.40;99.90
20141;DHT22;10231;47.702;9.826;2024-02-26T06:29:54;4.30;99.90
20141;DHT22;10231;47.702;9.826;2024-02-26T06:32:19;4.30;99.90
20141;DHT22;10231;47.702;9.826;2024-02-26T06:34:45;4.40;99.90
20141;DHT22;10231;47.702;9.826;2024-02-26T06:37:10;4.20;99.90
20141;DHT22;10231;47.702;9.826;2024-02-26T06:39:36;4.40;99.90
20141;DHT22;10231;47.702;9.826;2024-02-26T06:42:01;4.40;99.90
20141;DHT22;10231;47.702;9.826;2024-02-26T06:44:28;4.30;99.90
20141;DHT22;10231;47.702;9.826;2024-02-26T06:46:59;4.40;99.90
20141;DHT22;10231;47.702;9.826;2024-02-26T06:49:25;4.40;99.90
20141;DHT22;10231;47.702;9.826;2024-02-26T06:51:51;4.40;99.90
20141;DHT22;10231;47.702;9.826;2024-02-26T06:54:16;4.40;99.90
20141;DHT22;10231;47.702;9.826;2024-02-26T06:56:42;4.40;99.90
20141;DHT22;10231;47.702;9.826;2024-02-26T06:59:07;4.60;99.90
20141;DHT22;10231;47.702;9.826;2024-02-26T07:01:33;4.60;99.90
20141;DHT22;10231;47.702;9.826;2024-02-26T07:03:58;4.50;99.90
20141;DHT22;10231;47.702;9.826;2024-02-26T07:06:24;4.50;99.90
20141;DHT22;10231;47.702;9.826;2024-02-26T07:08:49;4.50;99.90
20141;DHT22;10231;47.702;9.826;2024-02-26T07:11:15;4.50;99.90
20141;DHT22;10231;47.702;9.826;2024-02-26T07:13:41;4.50;99.90
20141;DHT22;10231;47.702;9.826;2024-02-26T07:16:09;4.60;99.90
20141;DHT22;10231;47.702;9.826;2024-02-26T07:18:35;4.60;99.90
20141;DHT22;10231;47.702;9.826;2024-02-26T07:21:04;4.70;99.90
20141;DHT22;10231;47.702;9.826;2024-02-26T07:23:29;4.80;99.90
20141;DHT22;10231;47.702;9.826;2024-02-26T07:25:55;4.80;99.90
20141;DHT22;10231;47.702;9.826;2024-02-26T07:28:20;4.70;99.90
20141;DHT22;10231;47.702;9.826;2024-02-26T07:30:46;4.70;99.90
20141;DHT22;10231;47.702;9.826;2024-02-26T07:33:12;4.70;99.90
20141;DHT22;10231;47.702;9.826;2024-02-26T07:35:37;4.60;99.90
20141;DHT22;10231;47.702;9.826;2024-02-26T07:38:07;4.70;99.90
20141;DHT22;10231;47.702;9.826;2024-02-26T07:40:33;4.70;99.90
20141;DHT22;10231;47.702;9.826;2024-02-26T07:42:58;4.70;99.90
20141;DHT22;10231;47.702;9.826;2024-02-26T07:45:24;4.80;99.90
20141;DHT22;10231;47.702;9.826;2024-02-26T07:47:49;4.80;99.90
20141;DHT22;10231;47.702;9.826;2024-02-26T07:50:17;4.90;99.90
20141;DHT22;10231;47.702;9.826;2024-02-26T07:52:42;4.90;99.90
20141;DHT22;10231;47.702;9.826;2024-02-26T07:55:08;5.00;99.90
20141;DHT22;10231;47.702;9.826;2024-02-26T07:57:34;5.00;99.90
20141;DHT22;10231;47.702;9.826;2024-02-26T08:00:00;5.00;99.90
20141;DHT22;10231;47.702;9.826;2024-02-26T08:02:25;5.10;99.90
20141;DHT22;10231;47.702;9.826;2024-02-26T08:04:51;5.10;99.90
20141;DHT22;10231;47.702;9.826;2024-02-26T08:07:17;5.20;99.90
20141;DHT22;10231;47.702;9.826;2024-02-26T08:09:42;5.20;99.90
20141;DHT22;10231;47.702;9.826;2024-02-26T08:12:08;5.20;99.90
20141;DHT22;10231;47.702;9.826;2024-02-26T08:14:33;5.30;99.90
20141;DHT22;10231;47.702;9.826;2024-02-26T08:16:59;5.30;99.90
20141;DHT22;10231;47.702;9.826;2024-02-26T08:19:25;5.40;99.90
20141;DHT22;10231;47.702;9.826;2024-02-26T08:21:51;5.50;99.90
20141;DHT22;10231;47.702;9.826;2024-02-26T08:24:17;5.60;99.90
20141;DHT22;10231;47.702;9.826;2024-02-26T08:26:42;5.60;99.90
20141;DHT22;10231;47.702;9.826;2024-02-26T08:29:08;5.70;99.90
20141;DHT22;10231;47.702;9.826;2024-02-26T08:31:33;5.70;99.90
20141;DHT22;10231;47.702;9.826;2024-02-26T08:34:01;5.80;99.90
20141;DHT22;10231;47.702;9.826;2024-02-26T08:36:28;5.90;99.90
20141;DHT22;10231;47.702;9.826;2024-02-26T08:38:53;5.90;99.90
20141;DHT22;10231;47.702;9.826;2024-02-26T08:41:19;5.90;99.90
20141;DHT22;10231;47.702;9.826;2024-02-26T08:43:44;5.90;99.90
20141;DHT22;10231;47.702;9.826;2024-02-26T08:46:10;6.00;99.90
20141;DHT22;10231;47.702;9.826;2024-02-26T08:48:38;6.10;99.90
20141;DHT22;10231;47.702;9.826;2024-02-26T08:51:06;6.10;99.90
20141;DHT22;10231;47.702;9.826;2024-02-26T08:53:32;6.10;99.90
20141;DHT22;10231;47.702;9.826;2024-02-26T08:55:57;6.20;99.90
20141;DHT22;10231;47.702;9.826;2024-02-26T08:58:23;6.20;99.90
20141;DHT22;10231;47.702;9.826;2024-02-26T09:00:48;6.30;99.90
20141;DHT22;10231;47.702;9.826;2024-02-26T09:03:14;6.30;99.90
20141;DHT22;10231;47.702;9.826;2024-02-26T09:05:39;6.40;99.90
20141;DHT22;10231;47.702;9.826;2024-02-26T09:08:05;6.50;99.90
20141;DHT22;10231;47.702;9.826;2024-02-26T09:10:31;6.60;99.90
20141;DHT22;10231;47.702;9.826;2024-02-26T09:12:58;6.70;99.90
20141;DHT22;10231;47.702;9.826;2024-02-26T09:15:23;6.70;99.90
20141;DHT22;10231;47.702;9.826;2024-02-26T09:17:49;6.80;99.90
20141;DHT22;10231;47.702;9.826;2024-02-26T09:20:15;6.90;99.90
20141;DHT22;10231;47.702;9.826;2024-02-26T09:22:48;6.90;99.90
20141;DHT22;10231;47.702;9.826;2024-02-26T09:25:14;6.90;99.90
20141;DHT22;10231;47.702;9.826;2024-02-26T09:27:43;6.90;99.90
20141;DHT22;10231;47.702;9.826;2024-02-26T09:30:12;7.00;99.90
20141;DHT22;10231;47.702;9.826;2024-02-26T09:32:38;7.00;99.90
20141;DHT22;10231;47.702;9.826;2024-02-26T09:35:05;7.10;99.90
20141;DHT22;10231;47.702;9.826;2024-02-26T09:37:30;7.20;99.90
20141;DHT22;10231;47.702;9.826;2024-02-26T09:39:56;7.20;99.90
20141;DHT22;10231;47.702;9.826;2024-02-26T09:42:25;7.30;99.90
20141;DHT22;10231;47.702;9.826;2024-02-26T09:44:54;7.40;99.90
20141;DHT22;10231;47.702;9.826;2024-02-26T09:47:20;7.40;99.90
20141;DHT22;10231;47.702;9.826;2024-02-26T09:49:47;7.50;99.90
20141;DHT22;10231;47.702;9.826;2024-02-26T09:52:15;7.60;99.90
20141;DHT22;10231;47.702;9.826;2024-02-26T09:54:41;7.70;99.90
20141;DHT22;10231;47.702;9.826;2024-02-26T09:57:09;7.80;99.90
20141;DHT22;10231;47.702;9.826;2024-02-26T09:59:41;7.80;99.90
20141;DHT22;10231;47.702;9.826;2024-02-26T10:02:14;7.90;99.90
20141;DHT22;10231;47.702;9.826;2024-02-26T10:04:41;8.00;99.90
20141;DHT22;10231;47.702;9.826;2024-02-26T10:07:11;8.10;99.90
20141;DHT22;10231;47.702;9.826;2024-02-26T10:09:37;8.20;99.90
20141;DHT22;10231;47.702;9.826;2024-02-26T10:12:04;8.20;99.90
20141;DHT22;10231;47.702;9.826;2024-02-26T10:14:30;8.30;99.90
20141;DHT22;10231;47.702;9.826;2024-02-26T10:16:56;8.40;99.90
20141;DHT22;10231;47.702;9.826;2024-02-26T10:19:29;8.50;99.90
20141;DHT22;10231;47.702;9.826;2024-02-26T10:21:59;8.50;99.90
20141;DHT22;10231;47.702;9.826;2024-02-26T10:24:26;8.60;99.90
20141;DHT22;10231;47.702;9.826;2024-02-26T10:26:52;8.70;99.90
20141;DHT22;10231;47.702;9.826;2024-02-26T10:29:20;8.70;99.90
20141;DHT22;10231;47.702;9.826;2024-02-26T10:31:46;8.80;99.90
20141;DHT22;10231;47.702;9.826;2024-02-26T10:34:12;8.80;99.90
20141;DHT22;10231;47.702;9.826;2024-02-26T10:36:38;8.90;99.90
20141;DHT22;10231;47.702;9.826;2024-02-26T10:39:06;9.00;99.90
20141;DHT22;10231;47.702;9.826;2024-02-26T10:41:33;9.00;99.90
20141;DHT22;10231;47.702;9.826;2024-02-26T10:43:59;9.10;99.90
20141;DHT22;10231;47.702;9.826;2024-02-26T10:46:25;9.10;99.90
20141;DHT22;10231;47.702;9.826;2024-02-26T10:48:52;9.20;99.90
20141;DHT22;10231;47.702;9.826;2024-02-26T10:51:27;9.30;99.90
20141;DHT22;10231;47.702;9.826;2024-02-26T10:53:59;9.30;99.90
20141;DHT22;10231;47.702;9.826;2024-02-26T10:56:28;9.40;99.90
20141;DHT22;10231;47.702;9.826;2024-02-26T10:58:55;9.50;99.90
20141;DHT22;10231;47.702;9.826;2024-02-26T11:01:21;9.50;99.90
20141;DHT22;10231;47.702;9.826;2024-02-26T11:03:52;9.50;99.90
20141;DHT22;10231;47.702;9.826;2024-02-26T11:06:27;9.50;99.90
20141;DHT22;10231;47.702;9.826;2024-02-26T11:08:54;9.50;99.90
20141;DHT22;10231;47.702;9.826;2024-02-26T11:11:22;9.50;99.90
20141;DHT22;10231;47.702;9.826;2024-02-26T11:13:50;9.50;99.90
20141;DHT22;10231;47.702;9.826;2024-02-26T11:16:20;9.50;99.90
20141;DHT22;10231;47.702;9.826;2024-02-26T11:18:47;9.50;99.90
20141;DHT22;10231;47.702;9.826;2024-02-26T11:21:16;9.50;99.90
20141;DHT22;10231;47.702;9.826;2024-02-26T11:23:52;9.50;99.90
20141;DHT22;10231;47.702;9.826;2024-02-26T11:26:19;9.40;99.90
20141;DHT22;10231;47.702;9.826;2024-02-26T11:28:47;9.50;99.90
20141;DHT22;10231;47.702;9.826;2024-02-26T11:31:13;9.50;99.90
20141;DHT22;10231;47.702;9.826;2024-02-26T11:33:39;9.50;99.90
20141;DHT22;10231;47.702;9.826;2024-02-26T11:36:09;9.50;99.90
20141;DHT22;10231;47.702;9.826;2024-02-26T11:38:35;9.40;99.90
20141;DHT22;10231;47.702;9.826;2024-02-26T11:41:01;9.40;99.90
20141;DHT22;10231;47.702;9.826;2024-02-26T11:43:52;9.40;99.90
20141;DHT22;10231;47.702;9.826;2024-02-26T11:46:31;9.40;99.90
20141;DHT22;10231;47.702;9.826;2024-02-26T11:49:02;9.40;99.90
20141;DHT22;10231;47.702;9.826;2024-02-26T11:51:32;9.40;99.90
20141;DHT22;10231;47.702;9.826;2024-02-26T11:53:58;9.40;99.90
20141;DHT22;10231;47.702;9.826;2024-02-26T11:56:24;9.50;99.90
20141;DHT22;10231;47.702;9.826;2024-02-26T11:58:57;9.50;99.90
20141;DHT22;10231;47.702;9.826;2024-02-26T12:01:39;9.50;99.90
20141;DHT22;10231;47.702;9.826;2024-02-26T12:04:07;9.40;99.90
20141;DHT22;10231;47.702;9.826;2024-02-26T12:06:56;9.40;99.90
20141;DHT22;10231;47.702;9.826;2024-02-26T12:12:02;9.60;99.90
20141;DHT22;10231;47.702;9.826;2024-02-26T12:14:28;9.70;99.90
20141;DHT22;10231;47.702;9.826;2024-02-26T12:16:55;9.70;99.90
20141;DHT22;10231;47.702;9.826;2024-02-26T12:19:22;9.40;99.90
20141;DHT22;10231;47.702;9.826;2024-02-26T12:21:52;9.60;99.90
20141;DHT22;10231;47.702;9.826;2024-02-26T12:24:19;9.50;99.90
20141;DHT22;10231;47.702;9.826;2024-02-26T12:26:45;9.50;99.90
20141;DHT22;10231;47.702;9.826;2024-02-26T12:29:12;9.50;99.90
20141;DHT22;10231;47.702;9.826;2024-02-26T12:31:39;9.40;99.90
20141;DHT22;10231;47.702;9.826;2024-02-26T12:34:06;9.30;99.90
20141;DHT22;10231;47.702;9.826;2024-02-26T12:36:33;9.30;99.90
20141;DHT22;10231;47.702;9.826;2024-02-26T12:39:00;9.30;99.90
20141;DHT22;10231;47.702;9.826;2024-02-26T12:41:26;9.30;99.90
20141;DHT22;10231;47.702;9.826;2024-02-26T12:43:53;9.30;99.90
20141;DHT22;10231;47.702;9.826;2024-02-26T12:46:19;9.30;99.90
20141;DHT22;10231;47.702;9.826;2024-02-26T12:48:46;9.30;99.90
20141;DHT22;10231;47.702;9.826;2024-02-26T12:51:12;9.30;99.90
20141;DHT22;10231;47.702;9.826;2024-02-26T12:53:39;9.30;99.90
20141;DHT22;10231;47.702;9.826;2024-02-26T12:56:07;9.30;99.90
20141;DHT22;10231;47.702;9.826;2024-02-26T12:58:33;9.30;99.90
20141;DHT22;10231;47.702;9.826;2024-02-26T13:00:59;9.30;99.90
20141;DHT22;10231;47.702;9.826;2024-02-26T13:03:25;9.30;99.90
20141;DHT22;10231;47.702;9.826;2024-02-26T13:05:52;9.40;99.90
20141;DHT22;10231;47.702;9.826;2024-02-26T13:08:20;9.30;99.90
20141;DHT22;10231;47.702;9.826;2024-02-26T13:10:46;9.40;99.90
20141;DHT22;10231;47.702;9.826;2024-02-26T13:13:15;9.40;99.90
20141;DHT22;10231;47.702;9.826;2024-02-26T13:15:43;9.40;99.90
20141;DHT22;10231;47.702;9.826;2024-02-26T13:18:14;9.40;99.90
20141;DHT22;10231;47.702;9.826;2024-02-26T13:20:40;9.40;99.90
20141;DHT22;10231;47.702;9.826;2024-02-26T13:23:07;9.40;99.90
20141;DHT22;10231;47.702;9.826;2024-02-26T13:25:34;9.40;99.90
20141;DHT22;10231;47.702;9.826;2024-02-26T13:28:16;9.40;99.90
20141;DHT22;10231;47.702;9.826;2024-02-26T13:30:50;9.50;99.90
20141;DHT22;10231;47.702;9.826;2024-02-26T13:33:16;9.50;99.90
20141;DHT22;10231;47.702;9.826;2024-02-26T13:35:42;9.50;99.90
20141;DHT22;10231;47.702;9.826;2024-02-26T13:38:08;9.50;99.90
20141;DHT22;10231;47.702;9.826;2024-02-26T13:40:35;9.50;99.90
20141;DHT22;10231;47.702;9.826;2024-02-26T13:43:00;9.50;99.90
20141;DHT22;10231;47.702;9.826;2024-02-26T13:45:26;9.60;99.90
20141;DHT22;10231;47.702;9.826;2024-02-26T13:47:52;9.60;99.90
20141;DHT22;10231;47.702;9.826;2024-02-26T13:50:18;9.60;99.90
20141;DHT22;10231;47.702;9.826;2024-02-26T13:52:47;9.60;99.90
20141;DHT22;10231;47.702;9.826;2024-02-26T13:55:13;9.60;99.90
20141;DHT22;10231;47.702;9.826;2024-02-26T13:57:40;9.60;99.90
20141;DHT22;10231;47.702;9.826;2024-02-26T14:00:07;9.60;99.90
20141;DHT22;10231;47.702;9.826;2024-02-26T14:02:34;9.60;99.90
20141;DHT22;10231;47.702;9.826;2024-02-26T14:05:02;9.50;99.90
20141;DHT22;10231;47.702;9.826;2024-02-26T14:07:29;9.60;99.90
20141;DHT22;10231;47.702;9.826;2024-02-26T14:09:55;9.60;99.90
20141;DHT22;10231;47.702;9.826;2024-02-26T14:12:20;9.60;99.90
20141;DHT22;10231;47.702;9.826;2024-02-26T14:14:46;9.60;99.90
20141;DHT22;10231;47.702;9.826;2024-02-26T14:17:14;9.60;99.90
20141;DHT22;10231;47.702;9.826;2024-02-26T14:19:41;9.60;99.90
20141;DHT22;10231;47.702;9.826;2024-02-26T14:22:12;9.60;99.90
20141;DHT22;10231;47.702;9.826;2024-02-26T14:24:38;9.60;99.90
20141;DHT22;10231;47.702;9.826;2024-02-26T14:27:05;9.60;99.90
20141;DHT22;10231;47.702;9.826;2024-02-26T14:29:31;9.70;99.90
20141;DHT22;10231;47.702;9.826;2024-02-26T14:31:57;9.70;99.90
20141;DHT22;10231;47.702;9.826;2024-02-26T14:34:22;9.70;99.90
20141;DHT22;10231;47.702;9.826;2024-02-26T14:36:48;9.60;99.90
20141;DHT22;10231;47.702;9.826;2024-02-26T14:39:14;9.70;99.90
20141;DHT22;10231;47.702;9.826;2024-02-26T14:41:39;9.70;99.90
20141;DHT22;10231;47.702;9.826;2024-02-26T14:44:05;9.70;99.90
20141;DHT22;10231;47.702;9.826;2024-02-26T14:46:31;9.70;99.90
20141;DHT22;10231;47.702;9.826;2024-02-26T14:48:56;9.70;99.90
20141;DHT22;10231;47.702;9.826;2024-02-26T14:51:23;9.70;99.90
20141;DHT22;10231;47.702;9.826;2024-02-26T14:53:48;9.70;99.90
20141;DHT22;10231;47.702;9.826;2024-02-26T14:56:14;9.70;99.90
20141;DHT22;10231;47.702;9.826;2024-02-26T14:58:40;9.70;99.90
20141;DHT22;10231;47.702;9.826;2024-02-26T15:01:05;9.70;99.90
20141;DHT22;10231;47.702;9.826;2024-02-26T15:03:31;9.70;99.90
20141;DHT22;10231;47.702;9.826;2024-02-26T15:05:56;9.70;99.90
20141;DHT22;10231;47.702;9.826;2024-02-26T15:08:22;9.60;99.90
20141;DHT22;10231;47.702;9.826;2024-02-26T15:10:47;9.60;99.90
20141;DHT22;10231;47.702;9.826;2024-02-26T15:13:16;9.60;99.90
20141;DHT22;10231;47.702;9.826;2024-02-26T15:15:43;9.60;99.90
20141;DHT22;10231;47.702;9.826;2024-02-26T15:18:09;9.60;99.90
20141;DHT22;10231;47.702;9.826;2024-02-26T15:20:37;9.50;99.90
20141;DHT22;10231;47.702;9.826;2024-02-26T15:23:04;9.50;99.90
20141;DHT22;10231;47.702;9.826;2024-02-26T15:25:30;9.60;99.90
20141;DHT22;10231;47.702;9.826;2024-02-26T15:27:55;9.50;99.90
20141;DHT22;10231;47.702;9.826;2024-02-26T15:30:21;9.50;99.90
20141;DHT22;10231;47.702;9.826;2024-02-26T15:32:46;9.50;99.90
20141;DHT22;10231;47.702;9.826;2024-02-26T15:35:12;9.50;99.90
20141;DHT22;10231;47.702;9.826;2024-02-26T15:37:37;9.40;99.90
20141;DHT22;10231;47.702;9.826;2024-02-26T15:40:04;9.40;99.90
20141;DHT22;10231;47.702;9.826;2024-02-26T15:42:32;9.50;99.90
20141;DHT22;10231;47.702;9.826;2024-02-26T15:44:58;9.40;99.90